Terminal Aerodrome Forecast
Issued by NWS Paducah, KY

Home | Current Version | Previous Version | Text Only | Print | Product List | Glossary On
Versions: 1 2 3 4 5 6 7 8 9 10 11 12 13 14
144
FTUS43 KPAH 142320
TAFPAH
TAF
KPAH 142320Z 1500/1524 18008KT P6SM SKC
     FM151100 23011G20KT P6SM VCTS SCT040CB
     FM151300 29014G22KT P6SM -SHRA BKN030
     FM151800 33014G22KT P6SM SCT060 BKN150=

USA.gov is the U.S. government's official web portal to all federal, state and local government web resources and services.